Time;durP1;ratioP1;P1;durP2;ratioP2;P2;SDS_P1;SDS_P2;PMS_P1;PMS_P2;Temp;Humidity;BMP_temperature;BMP_pressure;BME280_temperature;BME280_humidity;BME280_pressure;Samples;Min_cycle;Max_cycle;Signal;HPM_P1;HPM_P2
2023/08/21 00:01:04;;;;;;;7.43;2.28;;;18.50;99.90;;;;;;5030827;28;20087;-61
2023/08/21 00:03:31;;;;;;;6.50;2.33;;;18.40;99.90;;;;;;5030643;28;20050;-61
2023/08/21 00:05:58;;;;;;;7.45;2.65;;;18.50;99.90;;;;;;5030289;28;20495;-61
2023/08/21 00:08:25;;;;;;;6.88;2.28;;;18.40;99.90;;;;;;5030396;28;20045;-61
2023/08/21 00:10:52;;;;;;;11.35;2.83;;;18.40;99.90;;;;;;5029688;28;20734;-62
2023/08/21 00:13:19;;;;;;;6.00;2.38;;;18.40;99.90;;;;;;5030531;28;20568;-60
2023/08/21 00:15:45;;;;;;;7.72;1.98;;;18.40;99.90;;;;;;5030758;28;20049;-60
2023/08/21 00:18:12;;;;;;;7.15;2.20;;;18.40;99.90;;;;;;5030614;28;20059;-60
2023/08/21 00:20:41;;;;;;;3.70;2.13;;;18.30;99.90;;;;;;5030235;28;20045;-61
2023/08/21 00:23:08;;;;;;;5.85;1.83;;;18.30;99.90;;;;;;5030230;28;20416;-61
2023/08/21 00:25:35;;;;;;;5.80;2.13;;;18.20;99.90;;;;;;5030345;28;20041;-61
2023/08/21 00:28:02;;;;;;;7.60;2.78;;;18.20;99.90;;;;;;5030506;28;20077;-61
2023/08/21 00:30:29;;;;;;;7.63;2.50;;;18.10;99.90;;;;;;5030560;28;20049;-61
2023/08/21 00:32:55;;;;;;;7.60;2.20;;;18.10;99.90;;;;;;5030483;28;20064;-61
2023/08/21 00:35:22;;;;;;;11.85;2.60;;;18.10;99.90;;;;;;5029638;28;20041;-61
2023/08/21 00:37:49;;;;;;;4.78;2.05;;;18.10;99.90;;;;;;5030505;28;20053;-61
2023/08/21 00:40:16;;;;;;;6.10;1.75;;;18.00;99.90;;;;;;5029808;28;20538;-61
2023/08/21 00:42:43;;;;;;;7.07;1.83;;;17.90;99.90;;;;;;5030330;28;20045;-61
2023/08/21 00:45:11;;;;;;;9.55;2.33;;;17.90;99.90;;;;;;5029898;28;20077;-62
2023/08/21 00:47:38;;;;;;;3.33;1.73;;;17.80;99.90;;;;;;5028739;28;20042;-61
2023/08/21 00:50:06;;;;;;;9.30;2.55;;;17.80;99.90;;;;;;4995732;28;20049;-61
2023/08/21 00:52:36;;;;;;;5.80;2.53;;;17.80;99.90;;;;;;5029361;28;20156;-60
2023/08/21 00:55:03;;;;;;;7.63;2.47;;;17.80;99.90;;;;;;5012589;28;20049;-60
2023/08/21 00:57:30;;;;;;;12.25;3.25;;;17.80;99.90;;;;;;4996296;28;20163;-60
2023/08/21 00:59:59;;;;;;;4.90;1.95;;;17.70;99.90;;;;;;4985484;28;20057;-60
2023/08/21 01:02:25;;;;;;;7.55;2.40;;;17.70;99.90;;;;;;4995993;28;20184;-61
2023/08/21 01:04:52;;;;;;;9.18;2.83;;;17.60;99.90;;;;;;5029022;28;20092;-61
2023/08/21 01:07:19;;;;;;;8.05;2.28;;;17.60;99.90;;;;;;5029983;28;20104;-61
2023/08/21 01:09:58;;;;;;;10.77;2.97;;;17.50;99.90;;;;;;5028988;28;20507;-61
2023/08/21 01:12:59;;;;;;;9.77;1.98;;;17.50;99.90;;;;;;5011524;28;20091;-61
2023/08/21 01:15:25;;;;;;;4.93;2.55;;;17.40;99.90;;;;;;4961092;28;20130;-61
2023/08/21 01:17:52;;;;;;;4.95;2.10;;;17.40;99.90;;;;;;5029360;28;20132;-60
2023/08/21 01:20:19;;;;;;;7.35;2.17;;;17.40;99.90;;;;;;4995572;28;20038;-62
2023/08/21 01:22:46;;;;;;;7.57;2.50;;;17.50;99.90;;;;;;5011923;28;20459;-62
2023/08/21 01:25:12;;;;;;;6.40;1.80;;;17.50;99.90;;;;;;5029082;28;20057;-61
2023/08/21 01:27:45;;;;;;;5.97;2.42;;;17.50;99.90;;;;;;5029116;28;20050;-62
2023/08/21 01:30:12;;;;;;;5.97;2.13;;;17.50;99.90;;;;;;4996055;28;20103;-62
2023/08/21 01:33:10;;;;;;;6.97;1.83;;;17.50;99.90;;;;;;5025634;28;20432;-61
2023/08/21 01:35:37;;;;;;;8.38;2.67;;;17.50;99.90;;;;;;5011606;28;20515;-61
2023/08/21 01:38:04;;;;;;;6.75;2.63;;;17.40;99.90;;;;;;5011333;28;20053;-61
2023/08/21 01:40:31;;;;;;;10.02;2.58;;;17.40;99.90;;;;;;5026692;28;20085;-61
2023/08/21 01:42:57;;;;;;;13.07;2.75;;;17.40;99.90;;;;;;5028910;28;20050;-60
2023/08/21 01:45:24;;;;;;;6.82;1.90;;;17.30;99.90;;;;;;5028927;28;20092;-61
2023/08/21 01:47:51;;;;;;;9.32;2.65;;;17.30;99.90;;;;;;4995221;28;20068;-61
2023/08/21 01:50:18;;;;;;;8.18;3.15;;;17.30;99.90;;;;;;5019728;28;20053;-60
2023/08/21 01:52:45;;;;;;;6.70;2.17;;;17.30;99.90;;;;;;5028326;28;20531;-61
2023/08/21 01:55:12;;;;;;;7.60;2.35;;;17.30;99.90;;;;;;5028749;28;20053;-60
2023/08/21 01:57:39;;;;;;;8.88;2.47;;;17.30;99.90;;;;;;5028485;28;20053;-61
2023/08/21 02:00:07;;;;;;;8.23;2.15;;;17.30;99.90;;;;;;5016120;28;20128;-61
2023/08/21 02:02:33;;;;;;;7.43;2.67;;;17.30;99.90;;;;;;5028268;28;20520;-61
2023/08/21 02:05:00;;;;;;;8.93;2.58;;;17.20;99.90;;;;;;5027793;28;20060;-62
2023/08/21 02:07:27;;;;;;;5.13;2.33;;;17.10;99.90;;;;;;5028574;28;20052;-61
2023/08/21 02:09:54;;;;;;;7.28;2.05;;;17.00;99.90;;;;;;5028668;28;20122;-61
2023/08/21 02:12:21;;;;;;;3.60;1.83;;;16.80;99.90;;;;;;5028328;28;20578;-61
2023/08/21 02:14:47;;;;;;;5.57;2.30;;;16.90;99.90;;;;;;5026903;28;20045;-62
2023/08/21 02:17:14;;;;;;;6.30;2.03;;;16.80;99.90;;;;;;5026000;28;20081;-62
2023/08/21 02:19:41;;;;;;;6.43;2.17;;;16.80;99.90;;;;;;5028401;28;20088;-62
2023/08/21 02:22:08;;;;;;;8.43;2.72;;;16.80;99.90;;;;;;5027349;28;20460;-61
2023/08/21 02:24:34;;;;;;;8.57;3.33;;;16.80;99.90;;;;;;5025760;28;20045;-62
2023/08/21 02:27:03;;;;;;;8.40;2.95;;;16.80;99.90;;;;;;5028308;28;20080;-62
2023/08/21 02:29:29;;;;;;;10.15;3.50;;;16.70;99.90;;;;;;5028465;28;20049;-62
2023/08/21 02:31:56;;;;;;;8.75;3.35;;;16.70;99.90;;;;;;5028236;28;20049;-61
2023/08/21 02:34:23;;;;;;;8.27;3.55;;;16.70;99.90;;;;;;5027714;28;20099;-61
2023/08/21 02:36:50;;;;;;;8.82;4.68;;;16.70;99.90;;;;;;5028546;28;20141;-61
2023/08/21 02:39:16;;;;;;;10.77;3.97;;;16.70;99.90;;;;;;5028049;28;20119;-61
2023/08/21 02:41:43;;;;;;;8.85;3.83;;;16.60;99.90;;;;;;5028385;28;20096;-61
2023/08/21 02:44:10;;;;;;;8.50;4.05;;;16.60;99.90;;;;;;5025585;28;20107;-60
2023/08/21 02:46:36;;;;;;;11.20;3.60;;;16.60;99.90;;;;;;5027224;28;20048;-60
2023/08/21 02:49:03;;;;;;;11.10;3.95;;;16.60;99.90;;;;;;5027720;28;20133;-61
2023/08/21 02:51:30;;;;;;;6.90;3.28;;;16.60;99.90;;;;;;5028171;28;20053;-60
2023/08/21 02:53:57;;;;;;;9.30;4.18;;;16.60;99.90;;;;;;5025591;28;20054;-62
2023/08/21 02:56:24;;;;;;;7.03;3.28;;;16.70;99.90;;;;;;5028201;28;20092;-60
2023/08/21 02:58:50;;;;;;;9.38;3.20;;;16.70;99.90;;;;;;5026890;28;20136;-61
2023/08/21 03:01:18;;;;;;;14.45;4.32;;;16.70;99.90;;;;;;5026256;28;20049;-61
2023/08/21 03:03:45;;;;;;;6.78;3.63;;;16.60;99.90;;;;;;5027745;28;20125;-60
2023/08/21 03:06:12;;;;;;;14.50;4.30;;;16.70;99.90;;;;;;5027822;28;20150;-60
2023/08/21 03:08:38;;;;;;;9.43;3.55;;;16.70;99.90;;;;;;5028035;28;20096;-61
2023/08/21 03:11:05;;;;;;;11.85;4.30;;;16.70;99.90;;;;;;5026599;28;20069;-61
2023/08/21 03:13:32;;;;;;;10.32;3.50;;;16.50;99.90;;;;;;5027914;28;20049;-61
2023/08/21 03:15:58;;;;;;;13.70;4.13;;;16.50;99.90;;;;;;5027890;28;20122;-61
2023/08/21 03:18:29;;;;;;;8.40;3.97;;;16.40;99.90;;;;;;5032187;28;20132;-61
2023/08/21 03:20:56;;;;;;;8.05;4.30;;;16.40;99.90;;;;;;5027472;28;20049;-61
2023/08/21 03:23:23;;;;;;;9.20;4.43;;;16.40;99.90;;;;;;5025232;28;20045;-61
2023/08/21 03:25:52;;;;;;;9.25;4.13;;;16.30;99.90;;;;;;5031027;28;20080;-61
2023/08/21 03:28:19;;;;;;;10.15;4.38;;;16.40;99.90;;;;;;5032025;28;20068;-61
2023/08/21 03:30:46;;;;;;;7.43;4.18;;;16.40;99.90;;;;;;5026198;28;20041;-59
2023/08/21 03:33:13;;;;;;;10.68;5.10;;;16.50;99.90;;;;;;5023606;28;20053;-61
2023/08/21 03:35:40;;;;;;;14.95;5.10;;;16.50;99.90;;;;;;5031353;28;20049;-60
2023/08/21 03:38:06;;;;;;;10.90;5.55;;;16.60;99.90;;;;;;5031256;28;20045;-61
2023/08/21 03:40:33;;;;;;;14.23;4.72;;;16.60;99.90;;;;;;5031146;28;20103;-60
2023/08/21 03:43:00;;;;;;;12.18;4.85;;;16.60;99.90;;;;;;5031157;28;20057;-62
2023/08/21 03:45:26;;;;;;;12.13;4.65;;;16.60;99.90;;;;;;5031448;28;20168;-61
2023/08/21 03:47:53;;;;;;;22.00;5.72;;;16.60;99.90;;;;;;5031307;28;20528;-61
2023/08/21 03:50:20;;;;;;;13.88;4.78;;;16.60;99.90;;;;;;5026256;28;20484;-61
2023/08/21 03:52:47;;;;;;;14.65;4.78;;;16.70;99.90;;;;;;5031324;28;20046;-60
2023/08/21 03:55:13;;;;;;;8.32;3.90;;;16.70;99.90;;;;;;5031179;28;20050;-60
2023/08/21 03:57:40;;;;;;;13.27;4.95;;;16.70;99.90;;;;;;5031190;28;20493;-61
2023/08/21 04:00:07;;;;;;;8.25;3.88;;;16.70;99.90;;;;;;5029968;28;20045;-60
2023/08/21 04:02:34;;;;;;;7.60;3.58;;;16.70;99.90;;;;;;5030661;28;20049;-60
2023/08/21 04:05:01;;;;;;;9.60;4.15;;;16.70;99.90;;;;;;5028644;28;20056;-61
2023/08/21 04:07:28;;;;;;;7.82;4.47;;;16.70;99.90;;;;;;5030259;28;20046;-61
2023/08/21 04:09:55;;;;;;;10.43;4.32;;;16.70;99.90;;;;;;5024373;28;20099;-61
2023/08/21 04:12:21;;;;;;;15.98;4.80;;;16.70;99.90;;;;;;5030630;28;20102;-61
2023/08/21 04:14:48;;;;;;;12.55;4.40;;;16.70;99.90;;;;;;5028548;28;20041;-61
2023/08/21 04:17:20;;;;;;;13.70;5.72;;;16.70;99.90;;;;;;5030653;28;20065;-60
2023/08/21 04:19:47;;;;;;;8.88;4.32;;;16.70;99.90;;;;;;5030499;28;20041;-60
2023/08/21 04:22:14;;;;;;;12.98;4.82;;;16.60;99.90;;;;;;5030588;28;20053;-62
2023/08/21 04:24:41;;;;;;;12.27;4.43;;;16.60;99.90;;;;;;5030395;28;20381;-61
2023/08/21 04:27:08;;;;;;;11.27;4.75;;;16.60;99.90;;;;;;5030183;28;20081;-61
2023/08/21 04:29:35;;;;;;;13.25;4.20;;;16.50;99.90;;;;;;5030539;28;20049;-61
2023/08/21 04:32:02;;;;;;;15.98;4.38;;;16.50;99.90;;;;;;5024654;28;20123;-61
2023/08/21 04:34:29;;;;;;;10.00;4.25;;;16.50;99.90;;;;;;5027536;28;20520;-61
2023/08/21 04:36:56;;;;;;;16.95;6.10;;;16.50;99.90;;;;;;5030251;28;20049;-60
2023/08/21 04:39:23;;;;;;;15.02;4.55;;;16.50;99.90;;;;;;5030401;28;20053;-61
2023/08/21 04:41:49;;;;;;;12.40;4.20;;;16.60;99.90;;;;;;5022286;28;20041;-61
2023/08/21 04:44:16;;;;;;;14.30;5.47;;;16.60;99.90;;;;;;5028856;28;20131;-61
2023/08/21 04:46:43;;;;;;;12.50;4.28;;;16.60;99.90;;;;;;5029963;28;20119;-61
2023/08/21 04:49:09;;;;;;;16.40;4.05;;;16.50;99.90;;;;;;5029930;28;20080;-60
2023/08/21 04:51:36;;;;;;;10.30;4.32;;;16.60;99.90;;;;;;5030358;28;20507;-61
2023/08/21 04:54:03;;;;;;;9.48;4.22;;;16.60;99.90;;;;;;5029399;28;20574;-61
2023/08/21 04:56:30;;;;;;;12.88;4.50;;;16.70;99.90;;;;;;5019169;28;20103;-61
2023/08/21 04:58:57;;;;;;;15.93;4.97;;;16.70;99.90;;;;;;5029703;28;20524;-61
2023/08/21 05:01:24;;;;;;;8.60;4.15;;;16.70;99.90;;;;;;5030064;28;20049;-61
2023/08/21 05:03:51;;;;;;;18.95;4.40;;;16.70;99.90;;;;;;5029305;28;20115;-60
2023/08/21 05:06:18;;;;;;;13.45;4.18;;;16.70;99.90;;;;;;5029551;28;20060;-62
2023/08/21 05:08:45;;;;;;;9.65;4.50;;;16.70;99.90;;;;;;5029606;28;20476;-60
2023/08/21 05:11:11;;;;;;;11.27;4.25;;;16.70;99.90;;;;;;5012320;28;20176;-60
2023/08/21 05:13:38;;;;;;;12.27;4.00;;;16.60;99.90;;;;;;5016643;28;20042;-60
2023/08/21 05:16:05;;;;;;;18.95;4.75;;;16.60;99.90;;;;;;5029954;28;20049;-61
2023/08/21 05:18:32;;;;;;;12.98;4.78;;;16.50;99.90;;;;;;5018549;28;20047;-61
2023/08/21 05:20:58;;;;;;;10.98;4.18;;;16.50;99.90;;;;;;5029607;28;20103;-61
2023/08/21 05:23:25;;;;;;;12.80;3.67;;;16.50;99.90;;;;;;5029291;28;20104;-62
2023/08/21 05:25:52;;;;;;;9.57;3.97;;;16.50;99.90;;;;;;5029169;28;20493;-62
2023/08/21 05:28:19;;;;;;;15.60;5.15;;;16.50;99.90;;;;;;5029506;28;20099;-62
2023/08/21 05:30:49;;;;;;;11.95;4.68;;;16.50;99.90;;;;;;5024724;28;20120;-62
2023/08/21 05:33:16;;;;;;;12.75;3.75;;;16.50;99.90;;;;;;5028994;28;20443;-62
2023/08/21 05:35:42;;;;;;;14.65;4.35;;;16.50;99.90;;;;;;5028746;28;20128;-62
2023/08/21 05:38:09;;;;;;;13.60;5.40;;;16.50;99.90;;;;;;5029639;28;20053;-62
2023/08/21 05:40:36;;;;;;;8.38;4.53;;;16.50;99.90;;;;;;5028616;28;20073;-61
2023/08/21 05:43:03;;;;;;;12.15;5.55;;;16.50;99.90;;;;;;5029178;28;20550;-61
2023/08/21 05:45:30;;;;;;;12.02;5.45;;;16.50;99.90;;;;;;5028754;28;20045;-61
2023/08/21 05:47:57;;;;;;;11.60;4.60;;;16.50;99.90;;;;;;5029070;28;20042;-60
2023/08/21 05:50:23;;;;;;;13.23;5.10;;;16.50;99.90;;;;;;5011082;28;20046;-61
2023/08/21 05:52:50;;;;;;;13.40;4.97;;;16.50;99.90;;;;;;5029001;28;20045;-61
2023/08/21 05:55:18;;;;;;;10.32;5.18;;;16.50;99.90;;;;;;5029036;28;20459;-61
2023/08/21 05:57:44;;;;;;;17.02;5.68;;;16.50;99.90;;;;;;5028964;28;20168;-61
2023/08/21 06:00:12;;;;;;;10.85;5.10;;;16.50;99.90;;;;;;5028634;28;20076;-62
2023/08/21 06:02:39;;;;;;;10.57;5.50;;;16.50;99.90;;;;;;5028973;28;20049;-62
2023/08/21 06:05:07;;;;;;;13.63;5.88;;;16.50;99.90;;;;;;5028520;28;20053;-62
2023/08/21 06:07:33;;;;;;;10.23;6.00;;;16.50;99.90;;;;;;5028746;28;20128;-62
2023/08/21 06:10:00;;;;;;;16.17;4.93;;;16.60;99.90;;;;;;5028784;28;20041;-62
2023/08/21 06:12:27;;;;;;;14.45;5.88;;;16.60;99.90;;;;;;5028874;28;20049;-62
2023/08/21 06:14:54;;;;;;;13.52;5.32;;;16.60;99.90;;;;;;5028628;28;20053;-61
2023/08/21 06:17:20;;;;;;;15.70;5.72;;;16.70;99.90;;;;;;5028742;28;20187;-62
2023/08/21 06:19:47;;;;;;;11.48;5.28;;;16.70;99.90;;;;;;5028182;28;20475;-62
2023/08/21 06:22:15;;;;;;;10.90;5.55;;;16.70;99.90;;;;;;5028239;28;20050;-61
2023/08/21 06:24:42;;;;;;;18.10;5.75;;;16.70;99.90;;;;;;5028548;28;20103;-62
2023/08/21 06:27:08;;;;;;;9.10;4.18;;;16.80;99.90;;;;;;5010454;28;20081;-62
2023/08/21 06:29:40;;;;;;;9.98;4.78;;;16.70;99.90;;;;;;5027222;28;20099;-60
2023/08/21 06:32:07;;;;;;;13.10;4.65;;;16.70;99.90;;;;;;5024889;28;20103;-61
2023/08/21 06:34:33;;;;;;;9.80;4.72;;;16.60;99.90;;;;;;5028226;28;20069;-61
2023/08/21 06:37:00;;;;;;;7.38;3.83;;;16.70;99.90;;;;;;5028221;28;20053;-63
2023/08/21 06:39:27;;;;;;;11.82;4.43;;;16.50;99.90;;;;;;5028460;28;20069;-61
2023/08/21 06:41:54;;;;;;;14.43;4.65;;;16.40;99.90;;;;;;5028071;28;20693;-59
2023/08/21 06:44:20;;;;;;;7.53;4.07;;;16.50;99.90;;;;;;5028334;28;20045;-61
2023/08/21 06:46:47;;;;;;;9.80;4.20;;;16.60;99.90;;;;;;5028070;28;20063;-61
2023/08/21 06:49:14;;;;;;;10.38;4.10;;;16.60;99.90;;;;;;5028217;28;20136;-61
2023/08/21 06:51:41;;;;;;;5.68;3.42;;;16.70;99.90;;;;;;5015891;28;20050;-62
2023/08/21 06:54:08;;;;;;;12.07;4.43;;;16.70;99.90;;;;;;5032186;28;20484;-62
2023/08/21 06:56:35;;;;;;;14.05;4.45;;;16.80;99.90;;;;;;5031901;28;20041;-61
2023/08/21 06:59:02;;;;;;;47.95;8.18;;;16.80;99.90;;;;;;5032140;28;20046;-62
2023/08/21 07:01:29;;;;;;;57.17;11.95;;;16.80;99.90;;;;;;5031993;28;20492;-62
2023/08/21 07:03:56;;;;;;;25.83;6.25;;;16.90;99.90;;;;;;5031623;28;20085;-61
2023/08/21 07:06:22;;;;;;;29.77;5.13;;;16.90;99.90;;;;;;5031908;28;20134;-62
2023/08/21 07:08:49;;;;;;;11.55;3.67;;;16.90;99.90;;;;;;5031938;28;20132;-62
2023/08/21 07:11:17;;;;;;;11.40;3.90;;;16.80;99.90;;;;;;5032148;28;20111;-61
2023/08/21 07:13:44;;;;;;;13.50;3.67;;;17.00;99.90;;;;;;5024754;28;20463;-61
2023/08/21 07:16:11;;;;;;;9.93;3.15;;;16.90;99.90;;;;;;5021002;28;20126;-61
2023/08/21 07:18:38;;;;;;;9.98;3.17;;;17.00;99.90;;;;;;5031620;28;20094;-61
2023/08/21 07:21:05;;;;;;;9.77;3.15;;;17.10;99.90;;;;;;5031625;28;20037;-61
2023/08/21 07:23:48;;;;;;;14.27;4.33;;;17.00;99.90;;;;;;5031275;28;20045;-61
2023/08/21 07:26:14;;;;;;;9.43;3.08;;;17.10;99.90;;;;;;5031782;28;20045;-62
2023/08/21 07:28:41;;;;;;;15.02;3.75;;;17.10;99.90;;;;;;5031188;28;20104;-61
2023/08/21 07:31:08;;;;;;;12.30;3.42;;;17.10;99.90;;;;;;5031360;28;20489;-62
2023/08/21 07:33:35;;;;;;;11.65;4.32;;;17.20;99.90;;;;;;5031198;28;20049;-65
2023/08/21 07:36:03;;;;;;;12.07;2.92;;;17.20;99.90;;;;;;5031120;28;20292;-62
2023/08/21 07:38:30;;;;;;;13.10;2.97;;;17.20;99.90;;;;;;5031296;28;20045;-61
2023/08/21 07:41:08;;;;;;;7.13;3.03;;;17.30;99.90;;;;;;5031266;28;20099;-61
2023/08/21 07:43:34;;;;;;;14.98;3.47;;;17.30;99.90;;;;;;5030608;28;20407;-61
2023/08/21 07:46:05;;;;;;;12.43;3.65;;;17.30;99.90;;;;;;5031259;28;20041;-61
2023/08/21 07:48:31;;;;;;;8.23;2.85;;;17.30;99.90;;;;;;5031040;28;20052;-61
2023/08/21 07:50:58;;;;;;;11.57;2.63;;;17.40;99.90;;;;;;5030861;28;20507;-62
2023/08/21 07:53:25;;;;;;;11.65;3.05;;;17.40;99.90;;;;;;5030920;28;20707;-61
2023/08/21 07:55:52;;;;;;;10.75;3.30;;;17.40;99.90;;;;;;5031101;28;20068;-61
2023/08/21 07:58:19;;;;;;;13.55;3.22;;;17.40;99.90;;;;;;5031045;28;20064;-61
2023/08/21 08:00:46;;;;;;;8.18;2.50;;;17.50;99.90;;;;;;5013419;28;20091;-61
2023/08/21 08:03:14;;;;;;;10.20;2.75;;;17.60;99.90;;;;;;5030239;28;20052;-61
2023/08/21 08:05:44;;;;;;;16.10;3.28;;;17.50;99.90;;;;;;5011694;28;20045;-61
2023/08/21 08:08:20;;;;;;;9.65;2.83;;;17.40;99.90;;;;;;5029267;28;20508;-62
2023/08/21 08:10:47;;;;;;;8.88;2.67;;;17.50;99.90;;;;;;5030222;28;20042;-61
2023/08/21 08:13:14;;;;;;;11.00;3.17;;;17.60;99.90;;;;;;5030974;28;20103;-62
2023/08/21 08:15:41;;;;;;;5.55;2.15;;;17.60;99.90;;;;;;5030404;28;20049;-63
2023/08/21 08:18:11;;;;;;;9.05;2.95;;;17.60;99.90;;;;;;5030699;28;20048;-62
2023/08/21 08:20:38;;;;;;;9.57;2.45;;;17.60;99.90;;;;;;5029875;28;20050;-62
2023/08/21 08:23:05;;;;;;;13.15;3.17;;;17.60;99.90;;;;;;5028075;28;20049;-61
2023/08/21 08:25:33;;;;;;;7.47;2.60;;;17.60;99.90;;;;;;5030215;28;20112;-61
2023/08/21 08:27:59;;;;;;;10.88;3.63;;;17.70;99.90;;;;;;5030385;28;20515;-61
2023/08/21 08:30:26;;;;;;;7.90;2.78;;;17.70;99.90;;;;;;5030177;28;20096;-61
2023/08/21 08:32:53;;;;;;;12.82;3.50;;;17.80;99.90;;;;;;5028102;28;20061;-61
2023/08/21 08:35:20;;;;;;;8.50;2.25;;;17.70;99.90;;;;;;5030053;28;20050;-62
2023/08/21 08:37:47;;;;;;;5.25;2.00;;;17.80;99.90;;;;;;5030345;28;20053;-61
2023/08/21 08:40:14;;;;;;;9.10;2.10;;;17.90;99.90;;;;;;5029972;28;20056;-61
2023/08/21 08:42:41;;;;;;;15.45;2.85;;;17.90;99.90;;;;;;5012546;28;20103;-61
2023/08/21 08:45:08;;;;;;;15.02;2.60;;;17.90;99.90;;;;;;5029806;28;20072;-61
2023/08/21 08:47:35;;;;;;;12.10;2.53;;;18.00;99.90;;;;;;5030057;28;20053;-62
2023/08/21 08:50:03;;;;;;;5.60;1.25;;;18.10;99.90;;;;;;5029566;28;20480;-62
2023/08/21 08:52:34;;;;;;;5.15;2.38;;;18.20;99.90;;;;;;5030030;28;20049;-62
2023/08/21 08:55:01;;;;;;;5.30;1.30;;;18.40;99.90;;;;;;5029937;28;20088;-61
2023/08/21 08:57:27;;;;;;;10.73;2.45;;;18.50;99.90;;;;;;5030042;28;20049;-61
2023/08/21 08:59:54;;;;;;;7.20;1.30;;;18.60;99.90;;;;;;5029883;28;20045;-62
2023/08/21 09:02:21;;;;;;;6.10;2.03;;;18.70;99.90;;;;;;5029129;28;20045;-62
2023/08/21 09:04:47;;;;;;;6.72;1.85;;;18.90;99.90;;;;;;5029491;28;20081;-61
2023/08/21 09:07:17;;;;;;;4.40;1.15;;;19.00;99.90;;;;;;5029341;28;20081;-61
2023/08/21 09:09:49;;;;;;;5.57;1.17;;;19.10;99.90;;;;;;5029884;28;20037;-62
2023/08/21 09:12:17;;;;;;;4.50;1.35;;;19.10;99.90;;;;;;5026638;28;20115;-62
2023/08/21 09:14:44;;;;;;;6.03;1.42;;;19.20;99.90;;;;;;5028543;28;20041;-63
2023/08/21 09:17:11;;;;;;;4.22;1.17;;;19.30;99.90;;;;;;5029036;28;20045;-62
2023/08/21 09:19:38;;;;;;;3.80;1.45;;;19.40;99.90;;;;;;5028901;28;20558;-62
2023/08/21 09:22:23;;;;;;;5.40;1.75;;;19.50;99.90;;;;;;5026869;28;20625;-63
2023/08/21 09:25:06;;;;;;;4.53;1.02;;;19.60;99.90;;;;;;5028928;28;20095;-63
2023/08/21 09:27:34;;;;;;;6.93;1.30;;;19.60;99.90;;;;;;5028957;28;20049;-62
2023/08/21 09:30:08;;;;;;;3.45;1.10;;;19.70;99.90;;;;;;5028224;28;20088;-63
2023/08/21 09:33:00;;;;;;;4.60;1.40;;;19.60;99.90;;;;;;5028730;28;20049;-63
2023/08/21 09:35:27;;;;;;;7.20;1.35;;;19.70;99.90;;;;;;5022007;28;20563;-63
2023/08/21 09:37:54;;;;;;;4.57;2.33;;;19.50;99.90;;;;;;5015624;28;20574;-63
2023/08/21 09:40:21;;;;;;;3.70;1.40;;;19.30;99.90;;;;;;5029086;28;20041;-63
2023/08/21 09:42:53;;;;;;;4.32;1.20;;;19.30;99.90;;;;;;5029150;28;20041;-62
2023/08/21 09:45:21;;;;;;;5.05;1.50;;;19.80;99.90;;;;;;5027422;28;20092;-63
2023/08/21 09:47:49;;;;;;;1.90;0.82;;;20.30;99.90;;;;;;5009682;28;20045;-62
2023/08/21 09:50:16;;;;;;;5.65;1.55;;;20.70;99.90;;;;;;5028682;28;20262;-63
2023/08/21 09:52:42;;;;;;;3.72;1.17;;;20.80;99.90;;;;;;4994821;28;20081;-62
2023/08/21 09:55:10;;;;;;;2.15;1.05;;;20.90;99.90;;;;;;4995306;28;20049;-62
2023/08/21 09:57:37;;;;;;;1.77;0.88;;;21.20;99.90;;;;;;5011332;28;20041;-62
2023/08/21 10:00:15;;;;;;;2.25;0.82;;;21.10;99.90;;;;;;5026465;28;20072;-62
2023/08/21 10:02:47;;;;;;;1.85;0.93;;;21.20;99.90;;;;;;5028546;28;20049;-62
2023/08/21 10:05:16;;;;;;;2.47;1.10;;;21.10;99.90;;;;;;4995190;28;20072;-62
2023/08/21 10:07:45;;;;;;;4.07;1.65;;;21.20;99.90;;;;;;5010816;28;20306;-62
2023/08/21 10:10:12;;;;;;;4.13;1.38;;;21.40;99.90;;;;;;5011113;28;20056;-63
2023/08/21 10:12:38;;;;;;;8.23;2.13;;;21.60;99.90;;;;;;4994268;28;20093;-63
2023/08/21 10:15:07;;;;;;;7.28;1.95;;;21.60;99.90;;;;;;5028074;28;20041;-62
2023/08/21 10:17:33;;;;;;;3.45;1.38;;;21.70;99.90;;;;;;5010854;28;20049;-63
2023/08/21 10:20:07;;;;;;;11.45;1.60;;;21.60;99.90;;;;;;5010081;28;20049;-62
2023/08/21 10:22:44;;;;;;;3.47;1.58;;;21.60;99.90;;;;;;5028392;28;20103;-62
2023/08/21 10:25:40;;;;;;;8.48;1.70;;;21.90;99.90;;;;;;5009968;28;20041;-62
2023/08/21 10:28:07;;;;;;;3.42;1.42;;;21.80;99.90;;;;;;5027319;28;20093;-63
2023/08/21 10:30:34;;;;;;;4.00;1.42;;;21.70;99.90;;;;;;5010622;28;20091;-63
2023/08/21 10:33:01;;;;;;;3.72;1.48;;;21.60;99.90;;;;;;5028229;28;20049;-63
2023/08/21 10:35:31;;;;;;;6.43;1.60;;;21.70;99.90;;;;;;5009981;28;20049;-63
2023/08/21 10:38:08;;;;;;;1.75;1.35;;;21.90;99.90;;;;;;5028693;28;20069;-63
2023/08/21 10:40:35;;;;;;;4.25;1.30;;;21.80;99.90;;;;;;5027733;28;20042;-62
2023/08/21 10:43:02;;;;;;;6.15;2.38;;;21.80;99.90;;;;;;5028544;28;20111;-64
2023/08/21 10:45:31;;;;;;;3.83;1.20;;;21.80;99.90;;;;;;5027583;28;20175;-63
2023/08/21 10:47:58;;;;;;;2.13;1.02;;;21.50;99.90;;;;;;5010691;28;20123;-63
2023/08/21 10:50:26;;;;;;;2.13;1.10;;;21.40;99.90;;;;;;5027672;28;20060;-63
2023/08/21 10:52:53;;;;;;;5.25;2.10;;;21.50;99.90;;;;;;5028289;28;20050;-64
2023/08/21 10:55:20;;;;;;;5.10;1.50;;;21.50;99.90;;;;;;5010506;28;20056;-63
2023/08/21 10:57:50;;;;;;;3.20;1.17;;;21.50;99.90;;;;;;5027764;28;20045;-62
2023/08/21 11:00:18;;;;;;;4.65;1.52;;;21.60;99.90;;;;;;5027646;28;20056;-63
2023/08/21 11:02:46;;;;;;;5.55;1.35;;;21.70;99.90;;;;;;5027583;28;20053;-63
2023/08/21 11:05:13;;;;;;;4.00;1.20;;;21.70;99.90;;;;;;5027419;28;20045;-63
2023/08/21 11:07:47;;;;;;;5.70;1.73;;;21.70;99.90;;;;;;5010192;28;20042;-63
2023/08/21 11:10:16;;;;;;;3.55;1.13;;;21.60;99.90;;;;;;5027780;28;20085;-62
2023/08/21 11:12:50;;;;;;;5.80;1.60;;;21.50;99.90;;;;;;5021626;28;20050;-61
2023/08/21 11:15:17;;;;;;;4.35;1.23;;;21.50;99.90;;;;;;5009495;28;20107;-62
2023/08/21 11:17:59;;;;;;;5.72;1.73;;;21.30;99.90;;;;;;5025528;28;20045;-63
2023/08/21 11:20:30;;;;;;;6.72;2.25;;;21.30;99.90;;;;;;5025420;28;20052;-63
2023/08/21 11:23:07;;;;;;;5.45;1.45;;;21.20;99.90;;;;;;5024819;28;20041;-63
2023/08/21 11:25:37;;;;;;;7.15;1.50;;;21.40;99.90;;;;;;5027358;28;20049;-63
2023/08/21 11:28:05;;;;;;;4.63;1.75;;;21.50;99.90;;;;;;5027585;28;20076;-62
2023/08/21 11:30:35;;;;;;;3.35;1.77;;;21.60;99.90;;;;;;5026955;28;20045;-62
2023/08/21 11:33:06;;;;;;;4.10;1.10;;;21.60;99.90;;;;;;5008655;28;20107;-62
2023/08/21 11:35:33;;;;;;;7.15;1.75;;;21.70;99.90;;;;;;5009876;28;20049;-63
2023/08/21 11:37:59;;;;;;;6.35;1.60;;;21.90;99.90;;;;;;5029227;28;20107;-61
2023/08/21 11:40:26;;;;;;;2.65;1.25;;;22.10;99.90;;;;;;5031216;28;20081;-61
2023/08/21 11:42:53;;;;;;;4.20;1.40;;;22.20;99.90;;;;;;5029916;28;20064;-62
2023/08/21 11:45:20;;;;;;;6.18;1.80;;;22.40;99.90;;;;;;4980109;28;20041;-63
2023/08/21 11:47:47;;;;;;;4.00;1.42;;;22.40;99.90;;;;;;5030711;28;20587;-63
2023/08/21 11:50:15;;;;;;;4.70;1.40;;;22.50;99.90;;;;;;5031126;28;20099;-63
2023/08/21 11:52:42;;;;;;;3.33;1.10;;;22.50;99.90;;;;;;5012749;28;20046;-62
2023/08/21 11:55:10;;;;;;;4.32;1.45;;;22.50;99.90;;;;;;4997538;28;20049;-64
2023/08/21 11:57:50;;;;;;;6.45;1.33;;;22.60;99.90;;;;;;5013483;28;20049;-62
2023/08/21 12:00:22;;;;;;;3.60;1.40;;;22.60;99.90;;;;;;5028349;28;20046;-63
2023/08/21 12:02:56;;;;;;;5.75;1.10;;;22.60;99.90;;;;;;5027950;28;20053;-63
2023/08/21 12:05:23;;;;;;;2.45;1.02;;;22.50;99.90;;;;;;5030552;28;20064;-62
2023/08/21 12:07:50;;;;;;;3.72;1.75;;;22.50;99.90;;;;;;5029121;28;20041;-62
2023/08/21 12:10:26;;;;;;;3.53;1.17;;;22.60;99.90;;;;;;5030681;28;20099;-62
2023/08/21 12:12:54;;;;;;;2.65;1.17;;;22.70;99.90;;;;;;5025826;28;20059;-63
2023/08/21 12:15:20;;;;;;;3.22;1.23;;;22.80;99.90;;;;;;5030741;28;20049;-62
2023/08/21 12:17:47;;;;;;;5.55;1.77;;;22.90;99.90;;;;;;5028381;28;20045;-65
2023/08/21 12:20:14;;;;;;;3.90;1.17;;;22.80;99.90;;;;;;5030594;28;20046;-61
2023/08/21 12:22:44;;;;;;;5.40;1.50;;;22.80;99.90;;;;;;5025257;28;20048;-62
2023/08/21 12:25:11;;;;;;;3.95;1.30;;;22.80;99.90;;;;;;5030557;28;20100;-62
2023/08/21 12:27:38;;;;;;;9.82;2.08;;;22.80;99.90;;;;;;5030171;28;20103;-62
2023/08/21 12:30:07;;;;;;;4.20;2.42;;;22.90;99.90;;;;;;5030363;28;20408;-62
2023/08/21 12:32:34;;;;;;;5.93;2.88;;;22.70;99.90;;;;;;5011047;28;20046;-61
2023/08/21 12:35:00;;;;;;;7.47;2.75;;;22.90;99.90;;;;;;5028914;28;20125;-63
2023/08/21 12:37:27;;;;;;;5.80;3.00;;;23.10;99.90;;;;;;5030130;28;20543;-62
2023/08/21 12:39:54;;;;;;;5.28;2.67;;;23.20;99.90;;;;;;5030191;28;20076;-62
2023/08/21 12:42:21;;;;;;;5.45;2.78;;;23.30;99.90;;;;;;5029820;28;20119;-63
2023/08/21 12:44:48;;;;;;;10.65;3.40;;;23.50;99.90;;;;;;5029535;28;20401;-63
2023/08/21 12:47:15;;;;;;;3.47;2.38;;;23.50;99.90;;;;;;5030335;28;20053;-63